Time;durP1;ratioP1;P1;durP2;ratioP2;P2;SDS_P1;SDS_P2;PMS_P1;PMS_P2;Temp;Humidity;BMP_temperature;BMP_pressure;BME280_temperature;BME280_humidity;BME280_pressure;Samples;Min_cycle;Max_cycle;Signal;HPM_P1;HPM_P2
2021/05/15 00:00:00;;;;;;;4.80;3.85;;;;;;;14.92;57.63;99450.39;1627868;83;21167;-92
2021/05/15 00:02:27;;;;;;;4.28;3.87;;;;;;;14.91;57.87;99451.44;1647224;83;21760;-93
2021/05/15 00:04:54;;;;;;;5.22;4.50;;;;;;;14.87;58.33;99452.16;1655535;84;21046;-92
2021/05/15 00:07:30;;;;;;;4.50;4.10;;;;;;;14.85;58.47;99445.69;1642421;83;21570;-92
2021/05/15 00:09:54;;;;;;;6.08;4.78;;;;;;;14.85;58.61;99447.03;1647159;83;22036;-92
2021/05/15 00:12:23;;;;;;;4.47;4.08;;;;;;;14.84;58.90;99444.05;1655244;84;21136;-93
2021/05/15 00:14:51;;;;;;;4.58;4.28;;;;;;;14.91;58.69;99444.72;1652897;82;21325;-92
2021/05/15 00:17:27;;;;;;;8.60;4.20;;;;;;;15.03;58.59;99440.68;1648192;83;21094;-91
2021/05/15 00:19:53;;;;;;;4.67;4.10;;;;;;;15.09;58.62;99436.23;1622865;86;21190;-92
2021/05/15 00:22:22;;;;;;;6.05;4.35;;;;;;;15.07;58.71;99434.28;1631053;85;21114;-92
2021/05/15 00:24:55;;;;;;;7.60;4.25;;;;;;;15.04;59.11;99441.48;1588795;87;21111;-93
2021/05/15 00:27:26;;;;;;;7.62;5.15;;;;;;;14.99;59.29;99440.34;1607720;84;21203;-92
2021/05/15 00:29:55;;;;;;;10.45;5.92;;;;;;;14.94;59.58;99437.55;1609322;86;21154;-92
2021/05/15 00:32:29;;;;;;;7.60;5.30;;;;;;;14.92;59.68;99438.32;1612814;85;21087;-92
2021/05/15 00:34:58;;;;;;;6.90;4.87;;;;;;;14.89;59.83;99437.98;1623331;85;21240;-93
2021/05/15 00:37:25;;;;;;;8.28;5.17;;;;;;;14.86;59.96;99443.81;1616997;84;22189;-91
2021/05/15 00:39:51;;;;;;;7.45;4.67;;;;;;;14.84;60.35;99448.06;1622822;85;21993;-92
2021/05/15 00:42:18;;;;;;;7.37;4.85;;;;;;;14.84;60.56;99449.41;1612046;86;21238;-93
2021/05/15 00:44:46;;;;;;;8.53;4.95;;;;;;;14.91;60.21;99438.55;1633964;84;21165;-91
2021/05/15 00:49:57;;;;;;;5.50;5.00;;;;;;;14.88;60.49;99442.54;1612316;86;21119;-93
2021/05/15 00:52:27;;;;;;;6.03;5.47;;;;;;;14.86;60.85;99444.65;1608243;85;21202;-93
2021/05/15 00:54:54;;;;;;;5.92;5.33;;;;;;;14.81;61.08;99445.88;1610307;85;21099;-93
2021/05/15 00:57:22;;;;;;;6.87;5.25;;;;;;;14.78;61.13;99449.83;1579927;87;21162;-93
2021/05/15 00:59:48;;;;;;;10.05;5.45;;;;;;;14.75;61.59;99444.16;1538298;90;21301;-93
2021/05/15 01:02:18;;;;;;;6.17;5.58;;;;;;;14.70;61.80;99448.88;1569812;89;21124;-93
2021/05/15 01:04:45;;;;;;;5.62;5.12;;;;;;;14.76;61.82;99441.75;1576868;89;21195;-93
2021/05/15 01:07:13;;;;;;;8.95;6.42;;;;;;;14.77;61.96;99446.07;1586033;87;21178;-93
2021/05/15 01:09:44;;;;;;;12.55;6.78;;;;;;;14.73;62.04;99444.89;1597043;87;21755;-92
2021/05/15 01:12:12;;;;;;;10.05;9.20;;;;;;;14.68;62.46;99450.98;1603467;87;21099;-92
2021/05/15 01:14:40;;;;;;;10.43;9.43;;;;;;;14.61;62.76;99448.95;1589508;88;21187;-92
2021/05/15 01:17:14;;;;;;;8.30;7.50;;;;;;;14.56;62.75;99447.46;1557078;89;21160;-92
2021/05/15 01:19:43;;;;;;;7.42;6.72;;;;;;;14.56;62.73;99452.83;1572490;88;21236;-92
2021/05/15 01:22:13;;;;;;;7.10;6.42;;;;;;;14.62;62.62;99451.09;1565048;89;21132;-92
2021/05/15 01:24:45;;;;;;;10.75;8.25;;;;;;;14.61;62.50;99452.97;1617114;86;21072;-92
2021/05/15 01:27:14;;;;;;;11.08;7.50;;;;;;;14.58;62.54;99449.44;1597659;87;21765;-90
2021/05/15 01:29:43;;;;;;;11.05;7.22;;;;;;;14.56;62.81;99454.16;1611297;86;21128;-92
2021/05/15 01:32:10;;;;;;;7.78;6.45;;;;;;;14.52;62.88;99455.19;1620718;85;21298;-92
2021/05/15 01:34:41;;;;;;;9.30;7.10;;;;;;;13.87;62.79;99349.52;1588529;84;21238;-93
2021/05/15 01:37:10;;;;;;;8.20;6.05;;;;;;;14.52;62.78;99461.89;1545634;90;21460;-93
2021/05/15 01:39:37;;;;;;;6.65;6.10;;;;;;;14.60;62.64;99466.91;1578292;89;22373;-93
2021/05/15 01:42:07;;;;;;;11.68;6.60;;;;;;;14.71;62.67;99461.75;1557001;88;21143;-92
2021/05/15 01:44:34;;;;;;;6.37;5.78;;;;;;;14.75;62.57;99462.94;1555451;86;21176;-92
2021/05/15 01:47:00;;;;;;;6.03;5.53;;;;;;;14.70;62.58;99454.77;1566292;86;21113;-89
2021/05/15 01:49:27;;;;;;;7.35;6.65;;;;;;;14.69;62.62;99456.65;1573738;86;21085;-93
2021/05/15 01:51:53;;;;;;;;;;;;;;;14.68;62.60;99455.53;1583508;86;21267;-92
2021/05/15 01:54:20;;;;;;;6.17;5.65;;;;;;;14.69;62.66;99458.49;1563381;87;20560;-92
2021/05/15 01:56:46;;;;;;;6.85;5.80;;;;;;;14.64;62.96;99461.09;1595027;87;21102;-93
2021/05/15 01:59:12;;;;;;;8.03;5.40;;;;;;;14.60;63.16;99458.88;1596208;87;21805;-93
2021/05/15 02:01:39;;;;;;;7.67;5.37;;;;;;;14.57;63.34;99459.87;1589037;87;21492;-93
2021/05/15 02:04:05;;;;;;;8.88;5.78;;;;;;;14.60;63.43;99462.09;1660356;85;21055;-93
2021/05/15 02:06:32;;;;;;;6.75;5.22;;;;;;;14.68;63.37;99460.91;1658016;84;21240;-93
2021/05/15 02:09:02;;;;;;;5.55;5.00;;;;;;;14.70;63.44;99462.28;1610921;86;21158;-93
2021/05/15 02:11:29;;;;;;;4.75;4.40;;;;;;;14.67;63.58;99465.96;1599111;87;21432;-93
2021/05/15 02:13:57;;;;;;;5.70;5.20;;;;;;;14.64;63.79;99467.80;1595363;86;21236;-93
2021/05/15 02:16:23;;;;;;;6.55;5.87;;;;;;;14.62;64.02;99470.70;1599829;86;21616;-93
2021/05/15 02:18:56;;;;;;;8.55;6.10;;;;;;;14.56;64.30;99473.78;1587110;87;21190;-93
2021/05/15 02:21:28;;;;;;;8.58;5.67;;;;;;;14.51;64.44;99471.52;1598345;86;21640;-92
2021/05/15 02:23:54;;;;;;;5.97;5.05;;;;;;;14.54;64.68;99471.86;1587450;86;21102;-92
2021/05/15 02:26:21;;;;;;;11.93;5.10;;;;;;;14.62;64.52;99476.08;1591748;86;21245;-91
2021/05/15 02:28:51;;;;;;;5.75;5.33;;;;;;;14.63;64.58;99480.91;1589234;86;21124;-92
2021/05/15 02:31:21;;;;;;;7.17;5.90;;;;;;;14.53;64.89;99474.23;1605138;87;21084;-92
2021/05/15 02:33:51;;;;;;;6.58;5.22;;;;;;;14.50;65.07;99481.40;1604554;86;21116;-92
2021/05/15 02:36:26;;;;;;;5.17;4.60;;;;;;;14.46;65.16;99488.28;1586766;86;22482;-93
2021/05/15 02:38:57;;;;;;;6.87;4.92;;;;;;;14.45;65.32;99492.03;1599263;86;21937;-93
2021/05/15 02:41:28;;;;;;;7.72;5.37;;;;;;;14.50;65.38;99488.64;1631510;85;21108;-91
2021/05/15 02:43:57;;;;;;;6.08;5.17;;;;;;;14.59;65.24;99487.27;1636458;85;21270;-92
2021/05/15 02:46:24;;;;;;;6.10;5.03;;;;;;;14.59;65.25;99488.06;1578796;87;21804;-93
2021/05/15 02:48:55;;;;;;;6.22;5.55;;;;;;;14.56;65.33;99495.23;1591333;87;21114;-93
2021/05/15 02:51:21;;;;;;;8.15;5.72;;;;;;;14.55;65.45;99502.97;1588515;87;21349;-93
2021/05/15 02:53:50;;;;;;;6.35;5.85;;;;;;;14.57;65.52;99503.58;1591094;88;21132;-92
2021/05/15 02:56:17;;;;;;;6.03;5.53;;;;;;;14.58;65.53;99507.91;1561646;87;21099;-93
2021/05/15 02:58:43;;;;;;;5.60;5.08;;;;;;;14.62;65.51;99509.59;1638649;85;21146;-94
2021/05/15 03:01:10;;;;;;;;;;;;;;;14.68;65.47;99510.52;1596124;85;21222;-93
2021/05/15 03:03:36;;;;;;;7.25;5.75;;;;;;;14.78;65.31;99509.39;1591506;87;20201;-93
2021/05/15 03:06:04;;;;;;;6.28;5.40;;;;;;;14.80;65.33;99508.63;1596532;84;21079;-93
2021/05/15 03:08:35;;;;;;;7.17;5.80;;;;;;;14.82;65.29;99514.56;1590661;87;21698;-92
2021/05/15 03:11:04;;;;;;;6.72;6.00;;;;;;;14.82;65.34;99519.93;1567645;87;21176;-92
2021/05/15 03:13:31;;;;;;;12.55;6.40;;;;;;;14.69;65.49;99494.70;1604095;86;21681;-93
2021/05/15 03:15:58;;;;;;;6.22;5.70;;;;;;;14.78;65.63;99520.92;1621052;86;21101;-93
2021/05/15 03:18:26;;;;;;;8.33;6.12;;;;;;;14.76;65.74;99519.00;1580352;87;21149;-91
2021/05/15 03:20:53;;;;;;;6.28;5.83;;;;;;;14.72;65.70;99527.77;1588914;88;21808;-92
2021/05/15 03:25:15;;;;;;;7.42;6.72;;;;;;;14.71;66.00;99527.47;1799172;79;22831;-92
2021/05/15 03:27:42;;;;;;;7.80;7.00;;;;;;;14.62;66.24;99539.59;1815872;78;21170;-93
2021/05/15 03:30:11;;;;;;;11.57;7.83;;;;;;;14.57;66.37;99533.61;1805658;78;21041;-93
2021/05/15 03:32:43;;;;;;;7.97;6.87;;;;;;;14.55;66.58;99537.83;1812008;78;21110;-94
2021/05/15 03:35:13;;;;;;;12.47;7.37;;;;;;;14.57;66.70;99537.64;1770272;78;21050;-93
2021/05/15 03:37:47;;;;;;;9.40;6.22;;;;;;;14.70;66.53;99535.24;1758431;81;21063;-93
2021/05/15 03:40:27;;;;;;;9.55;5.62;;;;;;;14.84;66.42;99529.89;1733234;81;22147;-92
2021/05/15 03:42:59;;;;;;;8.25;6.50;;;;;;;14.94;65.96;99530.13;1713756;81;21692;-92
2021/05/15 03:45:26;;;;;;;8.53;7.45;;;;;;;14.96;65.77;99530.70;1740539;81;21547;-92
2021/05/15 03:47:53;;;;;;;7.33;6.20;;;;;;;14.99;65.73;99536.95;1694129;83;21066;-91
2021/05/15 03:50:22;;;;;;;13.72;7.10;;;;;;;15.24;65.64;99534.99;1735443;81;21059;-92
2021/05/15 03:52:49;;;;;;;7.08;5.40;;;;;;;15.84;64.10;99534.55;1748930;81;21069;-91
2021/05/15 03:55:17;;;;;;;5.65;4.92;;;;;;;16.59;61.82;99533.00;1746910;81;21107;-91
2021/05/15 03:57:44;;;;;;;5.85;4.12;;;;;;;17.26;59.82;99551.66;1755736;81;22052;-92
2021/05/15 04:00:12;;;;;;;6.08;4.03;;;;;;;17.76;58.11;99542.21;1747003;81;21050;-90
2021/05/15 04:02:39;;;;;;;6.08;4.20;;;;;;;18.01;56.37;99543.83;1750388;81;21022;-92
2021/05/15 04:05:07;;;;;;;3.75;3.42;;;;;;;17.95;56.37;99547.56;1737575;81;21156;-91
2021/05/15 04:07:34;;;;;;;3.33;3.02;;;;;;;17.65;57.01;99555.60;1742547;81;21130;-91
2021/05/15 04:10:03;;;;;;;4.47;4.12;;;;;;;17.53;57.46;99550.87;1740359;81;21605;-91
2021/05/15 04:12:34;;;;;;;3.55;3.25;;;;;;;17.39;57.91;99551.02;1714917;81;21115;-92
2021/05/15 04:15:07;;;;;;;8.98;3.95;;;;;;;17.17;58.46;99559.09;1744662;82;21119;-92
2021/05/15 04:17:32;;;;;;;5.12;3.17;;;;;;;17.17;58.46;99559.09;1733963;81;21089;-91
2021/05/15 04:20:00;;;;;;;3.67;3.25;;;;;;;16.90;59.30;99563.34;1728064;81;21159;-91
2021/05/15 04:22:27;;;;;;;3.20;3.00;;;;;;;16.75;59.78;99559.06;1731355;81;21068;-92
2021/05/15 04:24:54;;;;;;;4.10;3.70;;;;;;;16.65;60.01;99563.78;1683828;83;21595;-89
2021/05/15 04:27:23;;;;;;;4.12;3.67;;;;;;;16.54;60.49;99574.11;1704769;81;21044;-89
2021/05/15 04:29:50;;;;;;;6.10;3.67;;;;;;;16.46;60.83;99569.13;1712270;81;21034;-92
2021/05/15 04:32:16;;;;;;;5.83;3.00;;;;;;;16.44;61.30;99569.36;1688963;84;21047;-92
2021/05/15 04:34:43;;;;;;;3.37;3.05;;;;;;;16.44;61.30;99569.36;1741664;81;21577;-91
2021/05/15 04:37:10;;;;;;;3.70;3.30;;;;;;;16.40;61.41;99572.27;1725724;81;21078;-91
2021/05/15 04:39:37;;;;;;;3.65;3.30;;;;;;;16.33;61.56;99568.92;1730521;83;21623;-92
2021/05/15 04:42:03;;;;;;;;;;;;;;;16.30;62.12;99568.89;1729705;81;21062;-93
2021/05/15 04:44:30;;;;;;;5.95;2.45;;;;;;;16.28;61.91;99567.52;1733240;81;21135;-92
2021/05/15 04:46:57;;;;;;;3.42;2.77;;;;;;;16.20;62.13;99565.21;1722600;82;21198;-92
2021/05/15 04:49:26;;;;;;;3.05;2.05;;;;;;;16.04;62.26;99540.77;1721607;82;21157;-92
2021/05/15 04:51:53;;;;;;;4.42;2.65;;;;;;;16.29;62.05;99566.44;1715859;82;21097;-93
2021/05/15 04:54:20;;;;;;;2.83;2.62;;;;;;;16.37;61.65;99573.28;1711395;82;21339;-92
2021/05/15 04:56:46;;;;;;;;;;;;;;;16.38;61.77;99574.38;1720624;82;21662;-91
2021/05/15 04:59:12;;;;;;;5.62;1.90;;;;;;;16.38;62.03;99574.38;1715276;82;20589;-91
2021/05/15 05:01:40;;;;;;;2.62;2.42;;;;;;;16.31;61.80;99583.14;1696892;82;21042;-92
2021/05/15 05:04:08;;;;;;;2.85;2.65;;;;;;;16.28;61.90;99579.62;1708190;84;21079;-91
2021/05/15 05:06:35;;;;;;;2.65;2.45;;;;;;;16.22;62.12;99585.95;1708102;84;21099;-92
2021/05/15 05:09:02;;;;;;;2.08;1.90;;;;;;;16.20;62.23;99583.53;1724558;82;21207;-91
2021/05/15 05:11:28;;;;;;;2.67;1.85;;;;;;;16.19;62.04;99582.42;1724919;83;21075;-92
2021/05/15 05:13:55;;;;;;;;;;;;;;;16.15;61.97;99580.75;1731966;82;21052;-92
2021/05/15 05:16:22;;;;;;;1.77;1.02;;;;;;;16.27;61.93;99592.76;1694120;82;20267;-93
2021/05/15 05:18:48;;;;;;;1.40;1.30;;;;;;;16.25;61.73;99598.91;1712023;82;21048;-94
2021/05/15 05:21:17;;;;;;;1.47;1.15;;;;;;;16.21;61.71;99603.95;1720326;82;21107;-93
2021/05/15 05:23:45;;;;;;;2.10;1.00;;;;;;;16.21;61.84;99601.27;1733056;82;21348;-93
2021/05/15 05:26:13;;;;;;;2.15;1.20;;;;;;;16.22;62.00;99604.77;1763129;80;21726;-93
2021/05/15 05:28:41;;;;;;;5.28;1.50;;;;;;;16.23;61.90;99601.03;1757048;81;21521;-94
2021/05/15 05:31:10;;;;;;;1.65;1.47;;;;;;;16.25;61.87;99603.75;1714459;81;21056;-93
2021/05/15 05:33:37;;;;;;;0.80;0.78;;;;;;;16.29;62.03;99608.95;1726401;82;21649;-92
2021/05/15 05:36:06;;;;;;;0.93;0.90;;;;;;;16.33;61.52;99603.88;1762162;81;21057;-93
2021/05/15 05:38:34;;;;;;;1.30;0.98;;;;;;;16.41;61.37;99608.06;1758667;81;20988;-93
2021/05/15 05:41:02;;;;;;;1.15;1.15;;;;;;;16.47;61.48;99611.11;1726045;83;21081;-93
2021/05/15 05:43:31;;;;;;;0.93;0.88;;;;;;;16.54;61.17;99615.80;1699426;83;21162;-92
2021/05/15 05:45:57;;;;;;;3.80;0.75;;;;;;;16.64;60.76;99611.91;1686005;83;21108;-93
2021/05/15 05:48:23;;;;;;;2.22;1.20;;;;;;;16.72;60.69;99622.25;1661571;83;21037;-92
2021/05/15 05:50:49;;;;;;;1.45;1.20;;;;;;;16.84;60.60;99619.52;1682734;84;21050;-92
2021/05/15 05:53:15;;;;;;;2.50;1.62;;;;;;;16.98;60.57;99619.16;1673603;85;21373;-92
2021/05/15 05:55:41;;;;;;;1.90;1.75;;;;;;;17.10;60.22;99626.07;1683666;84;21047;-91
2021/05/15 05:58:07;;;;;;;2.05;1.82;;;;;;;17.24;59.60;99625.70;1731685;82;21075;-91
2021/05/15 06:00:33;;;;;;;1.55;1.50;;;;;;;17.35;59.07;99622.59;1738430;81;21071;-92
2021/05/15 06:03:01;;;;;;;4.42;1.37;;;;;;;17.46;58.71;99629.22;1740492;81;21190;-91
2021/05/15 06:05:27;;;;;;;1.62;1.52;;;;;;;17.68;58.85;99627.84;1745438;80;21091;-92
2021/05/15 06:07:53;;;;;;;3.92;1.57;;;;;;;17.97;57.77;99624.95;1751534;80;21186;-91
2021/05/15 06:10:20;;;;;;;4.62;1.30;;;;;;;18.30;56.89;99621.73;1743022;80;21137;-92
2021/05/15 06:12:48;;;;;;;3.98;1.42;;;;;;;18.62;56.03;99624.42;1710581;83;21054;-91
2021/05/15 06:15:14;;;;;;;;;;;;;;;18.92;55.54;99627.08;1679605;83;21087;-91
2021/05/15 06:17:42;;;;;;;3.15;1.20;;;;;;;19.15;55.02;99625.86;1711420;83;20618;-90
2021/05/15 06:20:11;;;;;;;5.08;1.07;;;;;;;19.32;54.13;99621.61;1717064;80;21040;-90
2021/05/15 06:22:37;;;;;;;3.92;1.45;;;;;;;19.38;53.18;99618.39;1711542;82;21038;-90
2021/05/15 06:25:05;;;;;;;2.72;1.17;;;;;;;19.23;53.33;99616.44;1713877;82;21156;-90
2021/05/15 06:27:31;;;;;;;3.33;0.80;;;;;;;19.06;53.74;99626.07;1713540;81;21069;-90
2021/05/15 06:29:57;;;;;;;1.20;1.00;;;;;;;19.00;54.44;99621.73;1721508;82;21267;-91
2021/05/15 06:32:24;;;;;;;3.08;1.10;;;;;;;18.95;53.96;99628.44;1717666;82;21089;-89
2021/05/15 06:34:50;;;;;;;1.10;0.90;;;;;;;18.79;54.18;99628.86;1729435;82;21044;-90
2021/05/15 06:37:16;;;;;;;;;;;;;;;18.65;54.82;99631.20;1721505;82;21080;-91
2021/05/15 06:39:42;;;;;;;1.15;1.15;;;;;;;18.61;54.96;99635.47;1719698;82;20218;-89
2021/05/15 06:42:09;;;;;;;3.15;0.85;;;;;;;18.56;55.19;99646.25;1738582;82;21029;-91
2021/05/15 06:44:36;;;;;;;1.42;0.75;;;;;;;18.54;55.23;99640.30;1717017;82;21012;-91
2021/05/15 06:47:04;;;;;;;;;;;;;;;18.54;55.25;99647.04;1725488;82;21229;-91
2021/05/15 06:49:30;;;;;;;3.60;1.00;;;;;;;18.60;55.66;99646.80;1706038;83;20606;-91
2021/05/15 06:51:57;;;;;;;4.22;1.00;;;;;;;18.70;55.33;99647.41;1720576;82;21597;-90
2021/05/15 06:54:25;;;;;;;4.17;1.32;;;;;;;18.82;54.94;99644.58;1730379;82;21164;-91
2021/05/15 06:56:53;;;;;;;2.02;1.22;;;;;;;18.91;54.12;99648.42;1738290;82;21238;-91
2021/05/15 06:59:19;;;;;;;3.12;1.17;;;;;;;18.94;54.53;99652.48;1726611;82;21072;-92
2021/05/15 07:01:47;;;;;;;0.75;0.75;;;;;;;19.01;54.85;99654.42;1730289;82;21059;-92
2021/05/15 07:04:14;;;;;;;2.55;1.50;;;;;;;19.06;54.05;99649.87;1752708;81;21215;-90
2021/05/15 07:06:40;;;;;;;;;;;;;;;19.15;54.40;99654.77;1750195;81;21048;-88
2021/05/15 07:09:06;;;;;;;1.67;1.12;;;;;;;19.22;54.21;99652.64;1754034;79;20240;-89
2021/05/15 07:11:33;;;;;;;1.45;0.57;;;;;;;19.24;54.23;99655.34;1756464;80;20996;-88
2021/05/15 07:14:00;;;;;;;0.88;0.53;;;;;;;19.33;53.36;99658.92;1731691;81;21112;-89
2021/05/15 07:16:26;;;;;;;2.15;0.70;;;;;;;19.38;53.07;99660.28;1753219;81;21202;-88
2021/05/15 07:18:52;;;;;;;;;;;;;;;19.36;52.53;99663.78;1749845;81;21060;-91
2021/05/15 07:21:18;;;;;;;2.45;0.60;;;;;;;19.34;52.99;99662.69;1752166;81;20213;-88
2021/05/15 07:23:45;;;;;;;2.25;0.65;;;;;;;19.31;53.10;99661.05;1754061;81;21724;-90
2021/05/15 07:26:11;;;;;;;3.42;0.60;;;;;;;19.38;53.38;99654.88;1761385;81;21131;-91
2021/05/15 07:28:38;;;;;;;1.00;0.55;;;;;;;19.42;53.42;99662.20;1764525;80;21155;-91
2021/05/15 07:31:05;;;;;;;2.33;0.95;;;;;;;19.47;53.09;99660.59;1769576;81;21091;-91
2021/05/15 07:33:32;;;;;;;2.20;0.68;;;;;;;19.50;52.72;99663.59;1763205;80;21577;-89
2021/05/15 07:35:58;;;;;;;0.80;0.65;;;;;;;19.58;52.92;99664.42;1725445;83;21059;-89
2021/05/15 07:38:24;;;;;;;;;;;;;;;19.75;52.28;99661.55;1730609;82;21057;-91
2021/05/15 07:40:56;;;;;;;3.45;0.40;;;;;;;19.88;51.83;99675.66;1724837;81;20191;-87
2021/05/15 07:43:26;;;;;;;1.20;0.60;;;;;;;19.89;52.02;99659.17;1701681;81;21184;-89
2021/05/15 07:45:56;;;;;;;1.40;0.50;;;;;;;20.03;51.62;99663.52;1711089;82;21107;-88
2021/05/15 07:48:37;;;;;;;2.25;0.47;;;;;;;20.21;51.09;99664.37;1750998;80;21112;-89
2021/05/15 07:50:59;;;;;;;2.65;0.80;;;;;;;20.35;50.58;99670.05;1768978;80;21055;-88
2021/05/15 07:53:26;;;;;;;2.00;0.70;;;;;;;20.39;50.83;99663.56;1770725;80;21134;-89
2021/05/15 07:55:53;;;;;;;4.53;0.70;;;;;;;20.45;50.93;99664.38;1696716;83;21091;-89
2021/05/15 07:58:19;;;;;;;1.40;0.65;;;;;;;20.55;50.26;99664.37;1764221;80;21134;-90
2021/05/15 08:00:46;;;;;;;1.22;0.47;;;;;;;20.61;49.76;99663.34;1762299;80;21108;-90
2021/05/15 08:03:12;;;;;;;0.88;0.47;;;;;;;20.63;50.17;99659.81;1758602;81;21084;-89
2021/05/15 08:05:40;;;;;;;1.77;0.53;;;;;;;20.55;49.66;99669.78;1770476;81;21205;-89
2021/05/15 08:08:08;;;;;;;1.60;0.50;;;;;;;20.39;49.42;99665.72;1767744;81;21142;-89
2021/05/15 08:10:34;;;;;;;0.80;0.40;;;;;;;20.26;49.90;99664.09;1760603;81;21676;-90
2021/05/15 08:13:02;;;;;;;1.15;0.50;;;;;;;20.18;49.94;99665.44;1741044;81;21088;-88
2021/05/15 08:15:30;;;;;;;1.90;0.30;;;;;;;20.16;49.85;99664.35;1679760;84;21021;-89
2021/05/15 08:17:56;;;;;;;1.32;0.55;;;;;;;20.20;49.83;99667.34;1679147;84;21119;-87
2021/05/15 08:20:23;;;;;;;1.90;0.42;;;;;;;20.30;49.55;99668.69;1676626;84;21138;-89
2021/05/15 08:22:51;;;;;;;1.10;0.28;;;;;;;20.46;49.61;99661.95;1730041;82;21660;-88
2021/05/15 08:25:19;;;;;;;0.40;0.30;;;;;;;20.68;48.82;99665.75;1734109;81;21104;-87
2021/05/15 08:27:52;;;;;;;2.25;0.25;;;;;;;20.90;48.52;99666.83;1734982;82;21055;-88
2021/05/15 08:30:21;;;;;;;0.90;0.33;;;;;;;21.10;47.84;99665.44;1645545;85;21111;-87
2021/05/15 08:32:54;;;;;;;0.62;0.62;;;;;;;21.26;47.50;99658.62;1681983;83;21078;-90
2021/05/15 08:35:21;;;;;;;1.62;1.02;;;;;;;21.34;47.41;99656.69;1682172;84;21059;-86
2021/05/15 08:37:48;;;;;;;1.10;0.60;;;;;;;21.38;47.25;99662.65;1707771;82;21056;-88
2021/05/15 08:40:15;;;;;;;1.30;0.30;;;;;;;21.33;46.53;99668.08;1695540;83;21135;-87
2021/05/15 08:42:43;;;;;;;0.80;0.40;;;;;;;21.25;46.59;99670.02;1675701;85;21162;-89
2021/05/15 08:45:13;;;;;;;0.55;0.30;;;;;;;21.24;46.88;99674.34;1696100;84;21142;-90
2021/05/15 08:47:43;;;;;;;0.95;0.33;;;;;;;21.23;46.39;99667.29;1697878;82;21553;-88
2021/05/15 08:50:15;;;;;;;0.78;0.30;;;;;;;21.18;46.00;99662.70;1723223;82;21031;-89
2021/05/15 08:52:45;;;;;;;0.85;0.30;;;;;;;21.07;46.77;99665.98;1706885;84;21154;-89
2021/05/15 08:55:20;;;;;;;1.80;0.40;;;;;;;20.99;46.83;99665.19;1721956;82;21052;-89
2021/05/15 08:57:50;;;;;;;2.25;0.30;;;;;;;20.91;46.72;99662.50;1698406;82;21095;-89
2021/05/15 09:00:29;;;;;;;1.82;0.30;;;;;;;20.89;47.16;99666.55;1757441;81;21081;-90
2021/05/15 09:03:00;;;;;;;5.87;0.42;;;;;;;20.90;47.21;99679.02;1755509;81;21171;-91
2021/05/15 09:05:30;;;;;;;1.98;0.50;;;;;;;20.90;47.41;99674.95;1686657;84;21107;-89
2021/05/15 09:08:00;;;;;;;2.25;0.30;;;;;;;20.83;47.38;99675.77;1750924;81;21132;-91
2021/05/15 09:10:31;;;;;;;1.75;0.40;;;;;;;20.71;47.70;99682.28;1751745;81;21368;-89
2021/05/15 09:13:23;;;;;;;1.85;0.45;;;;;;;20.64;47.55;99679.57;1695617;82;21138;-91
2021/05/15 09:15:58;;;;;;;0.55;0.20;;;;;;;20.60;48.10;99682.01;1747374;81;21130;-91
2021/05/15 09:18:32;;;;;;;0.37;0.37;;;;;;;20.58;48.17;99680.89;1743399;81;21621;-90
2021/05/15 09:21:03;;;;;;;1.17;0.50;;;;;;;20.63;48.24;99682.03;1736343;81;21592;-89
2021/05/15 09:23:36;;;;;;;1.02;0.40;;;;;;;20.68;48.04;99677.94;1727094;82;21127;-88
2021/05/15 09:26:09;;;;;;;1.40;0.40;;;;;;;20.70;48.13;99675.77;1738775;81;21114;-89
2021/05/15 09:28:46;;;;;;;1.85;0.57;;;;;;;20.76;48.31;99672.80;1740284;81;21054;-90
2021/05/15 09:31:19;;;;;;;0.50;0.30;;;;;;;20.83;48.23;99679.28;1700433;84;21111;-88
2021/05/15 09:33:51;;;;;;;0.95;0.20;;;;;;;20.90;48.26;99676.31;1741246;81;21557;-91
2021/05/15 09:36:24;;;;;;;0.40;0.30;;;;;;;21.05;47.33;99678.19;1741960;82;21100;-90
2021/05/15 09:39:20;;;;;;;2.15;0.28;;;;;;;21.23;46.65;99680.31;1739498;81;21076;-90
2021/05/15 09:41:51;;;;;;;3.33;0.33;;;;;;;21.34;45.79;99677.84;1674664;84;21083;-89
2021/05/15 09:44:34;;;;;;;0.60;0.47;;;;;;;21.36;45.91;99677.03;1705320;81;21154;-89
2021/05/15 09:47:01;;;;;;;2.87;0.40;;;;;;;21.36;45.39;99677.03;1686442;84;21179;-91
2021/05/15 09:49:30;;;;;;;3.72;0.30;;;;;;;21.36;45.91;99677.03;1749701;80;21039;-90
2021/05/15 09:52:03;;;;;;;0.88;0.15;;;;;;;21.37;45.49;99675.12;1757848;81;21152;-90
2021/05/15 09:54:33;;;;;;;1.85;0.30;;;;;;;21.19;45.51;99681.93;1749587;80;21059;-93
2021/05/15 09:57:21;;;;;;;4.87;0.42;;;;;;;20.98;47.72;99697.41;1728076;81;21680;-91
2021/05/15 09:59:49;;;;;;;12.00;1.30;;;;;;;20.69;50.58;99693.92;1661476;84;21234;-91
2021/05/15 10:02:19;;;;;;;3.12;0.55;;;;;;;20.25;54.21;99703.05;1664290;85;21047;-90
2021/05/15 10:04:50;;;;;;;1.72;0.40;;;;;;;19.60;54.36;99700.11;1723772;82;21139;-91
2021/05/15 10:07:27;;;;;;;2.80;0.93;;;;;;;19.06;55.79;99712.50;1742842;81;21131;-91
2021/05/15 10:09:49;;;;;;;1.50;0.60;;;;;;;18.74;56.77;99728.19;1681203;84;21711;-91
2021/05/15 10:12:16;;;;;;;1.50;0.70;;;;;;;18.56;59.00;99726.66;1684588;84;21609;-92
2021/05/15 10:14:42;;;;;;;2.40;0.72;;;;;;;18.53;59.18;99735.80;1702601;83;21601;-90
2021/05/15 10:17:10;;;;;;;1.57;1.10;;;;;;;18.57;62.04;99734.22;1699642;83;21254;-91
2021/05/15 10:19:36;;;;;;;2.15;0.70;;;;;;;18.54;63.25;99735.55;1687171;84;21083;-92
2021/05/15 10:22:03;;;;;;;2.95;1.07;;;;;;;18.44;64.48;99737.62;1707233;82;21529;-89
2021/05/15 10:24:32;;;;;;;;;;;;;;;18.41;63.29;99735.97;1758248;81;21062;-91
2021/05/15 10:27:05;;;;;;;3.05;0.85;;;;;;;18.45;61.55;99727.64;1675832;82;20197;-89
2021/05/15 10:29:44;;;;;;;3.10;0.80;;;;;;;18.47;60.80;99730.35;1690767;84;21090;-91
2021/05/15 10:32:20;;;;;;;2.37;1.05;;;;;;;18.61;64.02;99725.88;1711471;81;21747;-91
2021/05/15 10:34:51;;;;;;;3.50;0.80;;;;;;;18.72;63.39;99720.05;1697234;82;21051;-90
2021/05/15 10:37:25;;;;;;;1.02;0.85;;;;;;;18.78;60.87;99725.25;1704053;82;21083;-90
2021/05/15 10:40:19;;;;;;;3.22;2.22;;;;;;;18.86;60.62;99730.19;1661955;84;21103;-91
2021/05/15 10:43:01;;;;;;;1.83;1.73;;;;;;;18.85;61.93;99719.64;1733222;81;21398;-91
2021/05/15 10:45:42;;;;;;;3.08;1.37;;;;;;;18.76;62.02;99737.35;1713714;81;21399;-91
2021/05/15 10:48:24;;;;;;;2.50;1.98;;;;;;;18.74;61.35;99736.80;1695991;82;21099;-91
2021/05/15 10:51:00;;;;;;;2.33;1.87;;;;;;;18.75;61.33;99724.94;1702721;83;21035;-91
2021/05/15 10:53:31;;;;;;;1.47;1.42;;;;;;;18.77;61.42;99720.91;1695240;82;21709;-90
2021/05/15 10:56:13;;;;;;;2.15;2.00;;;;;;;18.80;61.21;99717.73;1698945;82;21102;-92
2021/05/15 10:58:52;;;;;;;3.95;1.62;;;;;;;18.94;60.48;99727.55;1692263;82;21174;-92
2021/05/15 11:01:25;;;;;;;1.50;1.35;;;;;;;19.09;60.88;99717.39;1703547;84;21034;-89
2021/05/15 11:03:52;;;;;;;0.98;0.98;;;;;;;19.17;62.00;99726.35;1680126;84;21820;-93
2021/05/15 11:06:24;;;;;;;0.93;0.90;;;;;;;19.17;60.49;99739.05;1711849;82;21244;-90
2021/05/15 11:09:04;;;;;;;2.42;1.22;;;;;;;19.10;60.54;99742.00;1758648;81;21729;-92
2021/05/15 11:11:41;;;;;;;1.07;1.07;;;;;;;18.98;60.02;99737.30;1760439;81;21131;-91
2021/05/15 11:14:33;;;;;;;2.05;1.32;;;;;;;18.90;60.00;99741.84;1761603;81;21043;-90
2021/05/15 11:17:23;;;;;;;3.08;1.65;;;;;;;18.88;60.55;99741.28;1688280;82;21222;-91
2021/05/15 11:20:03;;;;;;;1.07;1.07;;;;;;;18.86;60.54;99748.28;1728107;82;21704;-92
2021/05/15 11:22:49;;;;;;;2.58;0.82;;;;;;;18.91;62.00;99750.20;1698200;82;20971;-89
2021/05/15 11:25:29;;;;;;;0.40;0.30;;;;;;;18.94;60.69;99747.80;1685692;84;21204;-90
2021/05/15 11:28:05;;;;;;;0.85;0.30;;;;;;;18.91;58.11;99755.60;1710991;82;21420;-90
2021/05/15 11:30:37;;;;;;;5.67;0.25;;;;;;;18.80;57.28;99756.87;1709233;82;21093;-90
2021/05/15 11:33:18;;;;;;;0.40;0.20;;;;;;;18.57;58.29;99766.09;1680140;84;21077;-91
2021/05/15 11:35:55;;;;;;;0.28;0.20;;;;;;;18.40;61.03;99761.31;1709301;82;21087;-91
2021/05/15 11:38:25;;;;;;;0.80;0.10;;;;;;;18.32;59.83;99772.56;1683031;82;21154;-93
2021/05/15 11:40:55;;;;;;;0.33;0.30;;;;;;;18.16;60.43;99775.09;1704936;82;21092;-92
2021/05/15 11:43:33;;;;;;;0.57;0.30;;;;;;;18.05;60.64;99767.41;1735508;81;21217;-92
2021/05/15 11:46:25;;;;;;;1.45;0.62;;;;;;;18.01;60.90;99759.55;1702945;82;21700;-92
2021/05/15 11:48:52;;;;;;;1.57;0.88;;;;;;;18.01;61.62;99760.89;1726083;82;21195;-90
2021/05/15 11:51:19;;;;;;;0.40;0.30;;;;;;;18.01;60.75;99764.94;1685375;83;21432;-92